Time;durP1;ratioP1;P1;durP2;ratioP2;P2;SDS_P1;SDS_P2;PMS_P1;PMS_P2;Temp;Humidity;BMP_temperature;BMP_pressure;BME280_temperature;BME280_humidity;BME280_pressure;Samples;Min_cycle;Max_cycle;Signal;HPM_P1;HPM_P2
2021/06/12 00:00:47;;;;;;;17.13;15.52;;;17.20;99.90;;;;;;5044868;28;20475;-75
2021/06/12 00:03:12;;;;;;;17.08;15.55;;;17.20;99.90;;;;;;5039308;28;20029;-75
2021/06/12 00:05:38;;;;;;;16.77;15.13;;;17.10;99.90;;;;;;5040014;28;20040;-76
2021/06/12 00:08:04;;;;;;;16.55;14.90;;;17.00;99.90;;;;;;5027932;28;20022;-75
2021/06/12 00:10:37;;;;;;;16.45;14.77;;;17.00;99.90;;;;;;5044387;28;20391;-75
2021/06/12 00:13:03;;;;;;;15.70;14.30;;;17.20;99.90;;;;;;5046323;28;20029;-75
2021/06/12 00:15:29;;;;;;;16.95;15.35;;;17.10;99.90;;;;;;5045099;28;20036;-76
2021/06/12 00:17:55;;;;;;;16.52;14.90;;;17.20;99.90;;;;;;5038696;28;20104;-75
2021/06/12 00:20:24;;;;;;;16.67;15.07;;;17.20;99.90;;;;;;5038454;28;20491;-75
2021/06/12 00:22:50;;;;;;;16.00;14.52;;;17.10;99.90;;;;;;5045709;28;20032;-75
2021/06/12 00:25:19;;;;;;;16.38;14.65;;;17.00;99.90;;;;;;5027634;28;20025;-75
2021/06/12 00:27:44;;;;;;;16.55;15.05;;;17.00;99.90;;;;;;5008578;28;20033;-75
2021/06/12 00:30:12;;;;;;;16.75;15.07;;;17.10;99.90;;;;;;5038462;28;20545;-74
2021/06/12 00:32:38;;;;;;;16.25;14.77;;;17.00;99.90;;;;;;5045138;28;20361;-75
2021/06/12 00:35:10;;;;;;;17.25;15.43;;;17.00;99.90;;;;;;5045486;28;20017;-74
2021/06/12 00:37:37;;;;;;;17.55;15.85;;;17.10;99.90;;;;;;5022453;28;20059;-74
2021/06/12 00:40:04;;;;;;;18.45;16.48;;;17.20;99.90;;;;;;5019346;28;20017;-74
2021/06/12 00:42:30;;;;;;;18.75;16.67;;;17.30;99.90;;;;;;5031984;28;20040;-75
2021/06/12 00:44:55;;;;;;;19.17;17.48;;;17.40;99.90;;;;;;5027280;28;20055;-74
2021/06/12 00:47:21;;;;;;;18.73;16.83;;;17.50;99.90;;;;;;5040280;28;20029;-74
2021/06/12 00:49:46;;;;;;;17.65;15.82;;;17.50;99.90;;;;;;5036691;28;20033;-74
2021/06/12 00:52:12;;;;;;;18.65;16.73;;;17.00;99.90;;;;;;5031833;28;20472;-75
2021/06/12 00:54:37;;;;;;;19.25;17.45;;;16.60;99.90;;;;;;5026732;28;20028;-75
2021/06/12 00:57:04;;;;;;;21.13;19.08;;;16.50;99.90;;;;;;5025572;28;20037;-75
2021/06/12 00:59:31;;;;;;;20.30;18.33;;;16.30;99.90;;;;;;5044906;28;20055;-74
2021/06/12 01:01:57;;;;;;;20.88;18.80;;;16.30;99.90;;;;;;5031866;28;20033;-75
2021/06/12 01:04:23;;;;;;;18.83;17.02;;;16.30;99.90;;;;;;5045196;28;20026;-75
2021/06/12 01:06:51;;;;;;;19.73;17.70;;;16.40;99.90;;;;;;5039765;28;20035;-75
2021/06/12 01:09:22;;;;;;;19.02;17.35;;;16.60;99.90;;;;;;5036346;28;20117;-75
2021/06/12 01:12:18;;;;;;;19.27;17.58;;;16.60;99.90;;;;;;5031573;28;20053;-74
2021/06/12 01:14:48;;;;;;;20.02;18.15;;;16.60;99.90;;;;;;5037337;28;20079;-75
2021/06/12 01:17:34;;;;;;;20.00;17.88;;;16.80;99.90;;;;;;5038312;28;20299;-75
2021/06/12 01:20:26;;;;;;;19.98;18.02;;;16.80;99.90;;;;;;5024647;28;20032;-75
2021/06/12 01:23:09;;;;;;;20.42;18.52;;;16.90;99.90;;;;;;5045198;28;20034;-75
2021/06/12 01:25:54;;;;;;;17.60;16.10;;;16.80;99.90;;;;;;5027238;28;20505;-76
2021/06/12 01:28:50;;;;;;;18.85;17.10;;;16.70;99.90;;;;;;5024490;28;20112;-75
2021/06/12 01:31:20;;;;;;;19.83;18.00;;;16.60;99.90;;;;;;5011964;28;20036;-75
2021/06/12 01:33:47;;;;;;;18.83;17.17;;;16.50;99.90;;;;;;5024329;28;20052;-74
2021/06/12 01:36:13;;;;;;;19.50;17.70;;;16.50;99.90;;;;;;5028526;28;20373;-74
2021/06/12 01:38:44;;;;;;;21.50;17.25;;;16.60;99.90;;;;;;5038055;28;20036;-74
2021/06/12 01:41:14;;;;;;;18.75;16.77;;;16.70;99.90;;;;;;5027677;28;20037;-74
2021/06/12 01:43:42;;;;;;;19.67;17.75;;;16.70;99.90;;;;;;5048786;28;20487;-75
2021/06/12 01:46:11;;;;;;;19.67;17.67;;;16.50;99.90;;;;;;5045800;28;20068;-75
2021/06/12 01:48:42;;;;;;;20.73;18.55;;;16.60;99.90;;;;;;5041692;28;20025;-75
2021/06/12 01:51:09;;;;;;;19.83;17.65;;;16.50;99.90;;;;;;5025875;28;20024;-74
2021/06/12 01:53:37;;;;;;;19.67;17.83;;;16.50;99.90;;;;;;5048507;28;20061;-74
2021/06/12 01:56:05;;;;;;;19.98;18.08;;;16.60;99.90;;;;;;5002530;28;20125;-74
2021/06/12 01:58:33;;;;;;;18.48;16.77;;;16.60;99.90;;;;;;5029498;28;20492;-74
2021/06/12 02:01:00;;;;;;;18.35;16.45;;;16.50;99.90;;;;;;5041467;28;20125;-74
2021/06/12 02:03:28;;;;;;;17.83;16.05;;;16.50;99.90;;;;;;5047498;28;20065;-75
2021/06/12 02:05:54;;;;;;;18.30;16.40;;;16.50;99.90;;;;;;5048520;28;20040;-75
2021/06/12 02:08:20;;;;;;;19.95;16.60;;;16.60;99.90;;;;;;5042306;28;20029;-75
2021/06/12 02:10:48;;;;;;;19.88;17.77;;;16.40;99.90;;;;;;5023515;28;20059;-75
2021/06/12 02:13:15;;;;;;;19.25;17.02;;;16.30;99.90;;;;;;5029259;28;20022;-75
2021/06/12 02:15:41;;;;;;;18.80;16.90;;;16.20;99.90;;;;;;5048178;28;20119;-74
2021/06/12 02:18:09;;;;;;;19.13;17.20;;;16.10;99.90;;;;;;5042583;28;20535;-75
2021/06/12 02:20:36;;;;;;;19.50;17.63;;;16.10;99.90;;;;;;5041051;28;20037;-74
2021/06/12 02:23:05;;;;;;;19.98;17.05;;;16.10;99.90;;;;;;5046694;28;20036;-74
2021/06/12 02:25:30;;;;;;;19.27;17.27;;;16.00;99.90;;;;;;5030212;28;20025;-75
2021/06/12 02:28:01;;;;;;;21.13;18.98;;;16.00;99.90;;;;;;5042789;28;20055;-74
2021/06/12 02:30:34;;;;;;;20.10;18.10;;;16.00;99.90;;;;;;5041068;28;20075;-74
2021/06/12 02:33:03;;;;;;;19.45;17.20;;;16.10;99.90;;;;;;5044359;28;20036;-74
2021/06/12 02:35:30;;;;;;;21.85;19.55;;;16.10;99.90;;;;;;5029763;28;20022;-74
2021/06/12 02:37:56;;;;;;;19.20;17.35;;;15.80;99.90;;;;;;5045296;28;20029;-75
2021/06/12 02:40:21;;;;;;;20.63;18.67;;;15.80;99.90;;;;;;5023030;28;20025;-74
2021/06/12 02:42:47;;;;;;;23.58;21.23;;;15.90;99.90;;;;;;5042864;28;20036;-74
2021/06/12 02:45:13;;;;;;;21.58;19.42;;;15.70;99.90;;;;;;5029726;28;20025;-74
2021/06/12 02:48:01;;;;;;;21.83;19.52;;;15.40;99.90;;;;;;5045197;28;20029;-74
2021/06/12 02:50:30;;;;;;;24.05;21.75;;;15.40;99.90;;;;;;5021935;28;20033;-76
2021/06/12 02:53:01;;;;;;;23.83;21.42;;;15.30;99.90;;;;;;5035671;28;20025;-76
2021/06/12 02:55:29;;;;;;;22.02;20.08;;;15.30;99.90;;;;;;5017788;28;20049;-76
2021/06/12 02:57:55;;;;;;;21.55;19.25;;;15.40;99.90;;;;;;5025027;28;20029;-76
2021/06/12 03:00:22;;;;;;;23.52;21.10;;;15.50;99.90;;;;;;5042530;28;20039;-75
2021/06/12 03:02:49;;;;;;;22.98;20.77;;;15.50;99.90;;;;;;5040493;28;20036;-74
2021/06/12 03:05:21;;;;;;;24.85;22.35;;;15.30;99.90;;;;;;5044998;28;20044;-76
2021/06/12 03:07:49;;;;;;;24.90;22.40;;;15.40;99.90;;;;;;5047195;28;20108;-76
2021/06/12 03:10:16;;;;;;;23.52;21.20;;;15.30;99.90;;;;;;5033677;28;20476;-75
2021/06/12 03:12:44;;;;;;;23.77;20.50;;;15.40;99.90;;;;;;5037243;28;20029;-76
2021/06/12 03:15:10;;;;;;;22.15;19.95;;;15.40;99.90;;;;;;5025329;28;20484;-74
2021/06/12 03:17:36;;;;;;;21.95;19.85;;;15.40;99.90;;;;;;5029123;28;20108;-75
2021/06/12 03:20:04;;;;;;;22.23;20.02;;;15.40;99.90;;;;;;5033541;28;20021;-75
2021/06/12 03:22:30;;;;;;;22.42;20.02;;;15.30;99.90;;;;;;5047000;28;20487;-75
2021/06/12 03:24:56;;;;;;;21.33;19.15;;;15.30;99.90;;;;;;5044260;28;20025;-74
2021/06/12 03:27:22;;;;;;;21.02;18.92;;;15.40;99.90;;;;;;5040098;28;20135;-73
2021/06/12 03:29:48;;;;;;;21.10;19.00;;;15.50;99.90;;;;;;5042455;28;20044;-74
2021/06/12 03:32:14;;;;;;;23.00;20.80;;;15.50;99.90;;;;;;5046815;28;20025;-74
2021/06/12 03:34:40;;;;;;;22.75;20.48;;;15.50;99.90;;;;;;5044414;28;20032;-73
2021/06/12 03:37:07;;;;;;;22.30;20.10;;;15.50;99.90;;;;;;5039715;28;20033;-74
2021/06/12 03:39:32;;;;;;;21.50;19.27;;;15.60;99.90;;;;;;5024163;28;20031;-74
2021/06/12 03:41:58;;;;;;;22.27;20.08;;;15.60;99.90;;;;;;5037566;28;20025;-74
2021/06/12 03:44:26;;;;;;;22.60;20.50;;;15.70;99.90;;;;;;5024445;28;20117;-74
2021/06/12 03:46:52;;;;;;;22.02;19.95;;;15.60;99.90;;;;;;5046467;28;20025;-73
2021/06/12 03:49:18;;;;;;;21.52;19.25;;;15.80;99.90;;;;;;5026142;28;20123;-72
2021/06/12 03:51:46;;;;;;;21.13;19.13;;;15.80;99.90;;;;;;5021631;28;20021;-72
2021/06/12 03:54:12;;;;;;;21.15;18.92;;;15.70;99.90;;;;;;5022567;28;20033;-72
2021/06/12 03:56:39;;;;;;;21.50;19.38;;;15.80;99.90;;;;;;5047794;28;20026;-72
2021/06/12 03:59:07;;;;;;;20.95;18.95;;;15.90;99.90;;;;;;5044190;28;20049;-74
2021/06/12 04:01:33;;;;;;;21.60;19.40;;;15.90;99.90;;;;;;5039207;28;20450;-72
2021/06/12 04:03:59;;;;;;;23.73;21.40;;;16.00;99.90;;;;;;5023218;28;20021;-74
2021/06/12 04:06:24;;;;;;;24.80;22.40;;;15.80;99.90;;;;;;5046173;28;20511;-74
2021/06/12 04:08:50;;;;;;;25.73;23.17;;;15.80;99.90;;;;;;5032667;28;20434;-74
2021/06/12 04:11:17;;;;;;;25.52;22.92;;;15.80;99.90;;;;;;5028143;28;20041;-74
2021/06/12 04:13:42;;;;;;;26.10;23.52;;;15.90;99.90;;;;;;5025747;28;20025;-75
2021/06/12 04:16:09;;;;;;;26.83;24.10;;;15.70;99.90;;;;;;5034632;28;20025;-75
2021/06/12 04:18:35;;;;;;;25.58;23.08;;;15.50;99.90;;;;;;5032507;28;20545;-75
2021/06/12 04:21:02;;;;;;;26.92;24.10;;;15.60;99.90;;;;;;5045676;28;20035;-74
2021/06/12 04:23:28;;;;;;;28.30;25.42;;;15.60;99.90;;;;;;5043650;28;20055;-73
2021/06/12 04:25:53;;;;;;;28.00;25.13;;;15.60;99.90;;;;;;5047830;28;20487;-74
2021/06/12 04:28:19;;;;;;;27.05;24.40;;;15.70;99.90;;;;;;5043369;28;20032;-74
2021/06/12 04:30:44;;;;;;;25.48;22.98;;;15.80;99.90;;;;;;5038736;28;20025;-73
2021/06/12 04:33:10;;;;;;;26.27;23.48;;;16.00;99.90;;;;;;5023433;28;20028;-72
2021/06/12 04:35:36;;;;;;;29.60;25.45;;;16.20;99.90;;;;;;5036229;28;20395;-72
2021/06/12 04:38:02;;;;;;;27.17;24.58;;;16.40;99.90;;;;;;5023553;28;20390;-72
2021/06/12 04:40:30;;;;;;;25.52;22.85;;;16.50;99.90;;;;;;5045393;28;20048;-72
2021/06/12 04:42:56;;;;;;;25.52;23.13;;;16.60;99.90;;;;;;5043088;28;20036;-72
2021/06/12 04:45:22;;;;;;;26.83;23.05;;;16.70;99.90;;;;;;5016425;28;20045;-73
2021/06/12 04:47:48;;;;;;;26.55;23.92;;;16.70;99.90;;;;;;5025071;28;20059;-73
2021/06/12 04:50:14;;;;;;;26.70;24.10;;;16.80;99.90;;;;;;5033992;28;20025;-72
2021/06/12 04:52:40;;;;;;;26.48;23.88;;;16.80;99.90;;;;;;5032006;28;20029;-72
2021/06/12 04:55:08;;;;;;;26.70;24.08;;;16.90;99.90;;;;;;5025931;28;20040;-72
2021/06/12 04:57:34;;;;;;;26.73;24.05;;;17.00;99.90;;;;;;5014145;28;20028;-73
2021/06/12 04:59:59;;;;;;;28.70;25.05;;;17.10;99.90;;;;;;5045053;28;20029;-73
2021/06/12 05:02:25;;;;;;;28.15;25.35;;;17.30;99.90;;;;;;5031843;28;20032;-74
2021/06/12 05:04:50;;;;;;;28.27;25.58;;;17.40;99.90;;;;;;5037408;28;20025;-73
2021/06/12 05:07:16;;;;;;;29.27;26.25;;;17.50;99.90;;;;;;5051450;28;20033;-73
2021/06/12 05:09:41;;;;;;;29.45;26.45;;;17.50;99.90;;;;;;5016767;28;20041;-73
2021/06/12 05:12:08;;;;;;;29.33;26.35;;;17.70;99.90;;;;;;5044014;28;20025;-74
2021/06/12 05:14:34;;;;;;;29.30;26.35;;;17.60;99.90;;;;;;5014632;28;20453;-74
2021/06/12 05:17:02;;;;;;;28.67;25.92;;;17.60;99.90;;;;;;5014096;28;20017;-74
2021/06/12 05:19:28;;;;;;;30.52;27.33;;;17.60;99.90;;;;;;5026809;28;20034;-74
2021/06/12 05:21:53;;;;;;;29.20;26.38;;;17.60;99.90;;;;;;5031650;28;20040;-74
2021/06/12 05:24:19;;;;;;;29.98;27.08;;;17.70;99.90;;;;;;5031409;28;20544;-74
2021/06/12 05:26:45;;;;;;;28.73;26.15;;;17.70;99.90;;;;;;5031488;28;20025;-74
2021/06/12 05:29:10;;;;;;;29.55;26.60;;;17.70;99.90;;;;;;5031223;28;20027;-74
2021/06/12 05:31:36;;;;;;;27.77;25.17;;;17.80;99.90;;;;;;5043519;28;20025;-74
2021/06/12 05:34:01;;;;;;;27.70;25.00;;;17.90;99.90;;;;;;5046117;28;20037;-74
2021/06/12 05:36:27;;;;;;;28.52;25.52;;;18.10;99.90;;;;;;5031391;28;20107;-74
2021/06/12 05:38:53;;;;;;;28.15;25.27;;;18.20;99.90;;;;;;5032162;28;20187;-74
2021/06/12 05:41:18;;;;;;;27.52;24.75;;;18.10;99.90;;;;;;5039102;28;20030;-74
2021/06/12 05:43:44;;;;;;;28.65;25.80;;;18.10;99.90;;;;;;5031288;28;20056;-74
2021/06/12 05:46:09;;;;;;;27.30;24.70;;;18.20;99.90;;;;;;5031392;28;20108;-74
2021/06/12 05:48:35;;;;;;;29.92;27.08;;;18.10;99.90;;;;;;5031272;28;20479;-74
2021/06/12 05:51:00;;;;;;;29.17;26.17;;;18.20;99.90;;;;;;5032503;28;20025;-74
2021/06/12 05:53:26;;;;;;;28.75;25.90;;;18.20;99.90;;;;;;5032506;28;20113;-74
2021/06/12 05:55:52;;;;;;;26.25;23.75;;;18.30;99.90;;;;;;5030352;28;20025;-74
2021/06/12 05:58:18;;;;;;;25.80;23.17;;;18.30;99.90;;;;;;5013578;28;20025;-74
2021/06/12 06:00:44;;;;;;;24.75;22.33;;;18.50;99.90;;;;;;5043231;28;20029;-74
2021/06/12 06:03:09;;;;;;;26.50;24.05;;;18.70;99.90;;;;;;5031467;28;20033;-74
2021/06/12 06:05:35;;;;;;;28.00;25.40;;;18.70;99.90;;;;;;5031190;28;20033;-73
2021/06/12 06:08:01;;;;;;;27.60;24.90;;;18.80;99.90;;;;;;5031014;28;20041;-72
2021/06/12 06:10:26;;;;;;;25.80;23.20;;;18.80;99.90;;;;;;5030948;28;20025;-73
2021/06/12 06:12:52;;;;;;;26.00;23.45;;;19.00;99.90;;;;;;5039437;28;20025;-73
2021/06/12 06:15:18;;;;;;;24.00;21.70;;;19.10;99.90;;;;;;5030768;28;20041;-73
2021/06/12 06:17:44;;;;;;;24.27;21.95;;;19.20;99.90;;;;;;5031485;28;20026;-73
2021/06/12 06:20:12;;;;;;;23.25;20.98;;;19.10;99.90;;;;;;5042798;28;20567;-73
2021/06/12 06:22:37;;;;;;;23.42;21.13;;;19.30;99.90;;;;;;5036642;28;20028;-73
2021/06/12 06:25:05;;;;;;;22.55;20.45;;;19.30;99.90;;;;;;5034320;28;20021;-73
2021/06/12 06:27:31;;;;;;;22.25;20.13;;;19.20;99.90;;;;;;5034460;28;20483;-73
2021/06/12 06:29:56;;;;;;;21.85;19.75;;;19.40;99.90;;;;;;5034411;28;20028;-73
2021/06/12 06:32:22;;;;;;;21.60;19.50;;;19.50;99.90;;;;;;5020022;28;20074;-73
2021/06/12 06:34:47;;;;;;;21.83;19.83;;;19.40;99.90;;;;;;5034451;28;20036;-73
2021/06/12 06:37:13;;;;;;;22.50;20.50;;;19.60;99.90;;;;;;5039390;28;20029;-73
2021/06/12 06:39:38;;;;;;;21.23;19.13;;;19.40;99.90;;;;;;5042452;28;20037;-73
2021/06/12 06:42:05;;;;;;;21.55;19.40;;;19.50;99.90;;;;;;5039105;28;20051;-73
2021/06/12 06:44:32;;;;;;;20.88;18.85;;;19.60;99.90;;;;;;5042691;28;20049;-73
2021/06/12 06:46:57;;;;;;;19.05;17.25;;;19.60;99.90;;;;;;5047581;28;20028;-73
2021/06/12 06:49:23;;;;;;;21.35;19.27;;;19.90;99.90;;;;;;5045518;28;20104;-73
2021/06/12 06:51:49;;;;;;;20.85;18.88;;;20.30;99.90;;;;;;5035574;28;20040;-73
2021/06/12 06:54:14;;;;;;;20.92;18.92;;;20.60;99.90;;;;;;5034246;28;20037;-73
2021/06/12 06:56:40;;;;;;;20.48;18.42;;;20.60;99.90;;;;;;5022810;28;20025;-73
2021/06/12 06:59:05;;;;;;;19.83;17.92;;;20.30;99.90;;;;;;5036179;28;20403;-73
2021/06/12 07:01:31;;;;;;;19.45;17.60;;;20.40;99.90;;;;;;5035490;28;20025;-73
2021/06/12 07:03:56;;;;;;;18.67;16.98;;;20.70;99.90;;;;;;5045432;28;20029;-73
2021/06/12 07:06:22;;;;;;;18.88;17.08;;;20.70;99.90;;;;;;5040213;28;20372;-73
2021/06/12 07:08:47;;;;;;;19.35;17.45;;;20.60;99.90;;;;;;5042516;28;20034;-74
2021/06/12 07:11:13;;;;;;;19.98;18.02;;;20.70;99.90;;;;;;5033534;28;20033;-76
2021/06/12 07:13:39;;;;;;;18.52;16.85;;;20.40;99.90;;;;;;5044648;28;20111;-70
2021/06/12 07:16:05;;;;;;;17.25;15.65;;;20.70;99.90;;;;;;5049312;28;20049;-73
2021/06/12 07:18:30;;;;;;;18.83;16.98;;;20.80;99.90;;;;;;5015796;28;20026;-72
2021/06/12 07:20:56;;;;;;;18.40;16.60;;;20.90;99.90;;;;;;5037232;28;20033;-73
2021/06/12 07:23:21;;;;;;;18.20;16.55;;;20.80;99.90;;;;;;5035410;28;20028;-73
2021/06/12 07:25:47;;;;;;;18.00;16.30;;;20.70;99.90;;;;;;5049383;28;20036;-73
2021/06/12 07:28:14;;;;;;;19.23;17.35;;;21.00;99.90;;;;;;5023090;28;20036;-73
2021/06/12 07:30:41;;;;;;;18.70;16.67;;;21.00;99.90;;;;;;5033017;28;20064;-73
2021/06/12 07:33:09;;;;;;;16.75;15.20;;;21.10;99.90;;;;;;5044672;28;20051;-73
2021/06/12 07:35:35;;;;;;;16.90;15.40;;;21.20;99.90;;;;;;5048405;28;20026;-73
2021/06/12 07:38:01;;;;;;;16.95;15.25;;;21.00;99.90;;;;;;5033351;28;20079;-73
2021/06/12 07:40:27;;;;;;;16.98;15.45;;;20.70;99.90;;;;;;5018237;28;20091;-73
2021/06/12 07:42:52;;;;;;;16.98;15.38;;;20.60;99.90;;;;;;5044355;28;20033;-73
2021/06/12 07:45:18;;;;;;;16.98;15.38;;;20.90;99.90;;;;;;5035167;28;20029;-73
2021/06/12 07:47:43;;;;;;;17.20;15.50;;;20.90;99.90;;;;;;5032990;28;20528;-74
2021/06/12 07:50:09;;;;;;;16.75;15.15;;;21.10;99.90;;;;;;5032723;28;20026;-73
2021/06/12 07:52:35;;;;;;;16.65;15.15;;;21.20;99.90;;;;;;5043882;28;20028;-73
2021/06/12 07:55:00;;;;;;;16.35;14.65;;;21.10;99.90;;;;;;5028602;28;20026;-73
2021/06/12 07:57:26;;;;;;;15.88;14.48;;;21.10;99.90;;;;;;5035512;28;20386;-73
2021/06/12 07:59:51;;;;;;;17.98;15.60;;;21.30;99.90;;;;;;5039297;28;20071;-73
2021/06/12 08:02:17;;;;;;;17.05;15.45;;;21.40;99.90;;;;;;5051643;28;20457;-73
2021/06/12 08:04:42;;;;;;;15.70;14.25;;;21.30;99.90;;;;;;5047933;28;20028;-73
2021/06/12 08:07:08;;;;;;;15.80;14.40;;;21.60;99.90;;;;;;5043666;28;20028;-73
2021/06/12 08:09:34;;;;;;;16.02;14.63;;;21.80;99.90;;;;;;5034665;28;20439;-73
2021/06/12 08:11:59;;;;;;;16.60;15.20;;;21.70;99.90;;;;;;5032604;28;20032;-73
2021/06/12 08:14:25;;;;;;;16.75;15.15;;;21.70;99.90;;;;;;5032306;28;20108;-73
2021/06/12 08:16:50;;;;;;;15.68;14.18;;;21.80;99.90;;;;;;5043029;28;20028;-73
2021/06/12 08:19:16;;;;;;;16.00;14.60;;;21.80;99.90;;;;;;5034774;28;20037;-73
2021/06/12 08:21:43;;;;;;;15.45;13.35;;;22.00;99.90;;;;;;5042793;28;20483;-73
2021/06/12 08:24:10;;;;;;;14.98;13.55;;;22.20;99.90;;;;;;5035009;28;20024;-73
2021/06/12 08:26:35;;;;;;;14.50;13.00;;;22.10;99.90;;;;;;5042809;28;20025;-73
2021/06/12 08:29:01;;;;;;;16.35;14.80;;;22.10;99.90;;;;;;5017567;28;20099;-73
2021/06/12 08:31:26;;;;;;;15.23;13.90;;;22.10;99.90;;;;;;5032356;28;20091;-73
2021/06/12 08:33:52;;;;;;;15.68;14.15;;;22.20;99.90;;;;;;5045364;28;20021;-73
2021/06/12 08:36:18;;;;;;;17.13;15.32;;;22.20;99.90;;;;;;5020986;28;20021;-73
2021/06/12 08:38:43;;;;;;;16.73;15.18;;;22.10;99.90;;;;;;5032056;28;20029;-74
2021/06/12 08:41:09;;;;;;;16.73;14.82;;;22.10;99.90;;;;;;5041360;28;20025;-73
2021/06/12 08:43:35;;;;;;;14.88;13.38;;;22.30;99.90;;;;;;5035453;28;20037;-73
2021/06/12 08:46:01;;;;;;;16.67;14.60;;;22.40;99.90;;;;;;5032124;28;20079;-73
2021/06/12 08:48:27;;;;;;;15.45;14.07;;;22.40;99.90;;;;;;5034619;28;20399;-73
2021/06/12 08:50:54;;;;;;;14.80;13.50;;;22.70;99.90;;;;;;5042061;28;20036;-73
2021/06/12 08:53:20;;;;;;;12.65;11.55;;;22.90;99.90;;;;;;5034762;28;20248;-73
2021/06/12 08:55:46;;;;;;;13.10;11.85;;;22.80;99.90;;;;;;5051891;28;20020;-73
2021/06/12 08:58:12;;;;;;;12.15;10.95;;;22.70;99.90;;;;;;5027011;28;20026;-74
2021/06/12 09:00:39;;;;;;;11.85;10.32;;;22.80;99.90;;;;;;5035008;28;20430;-73
2021/06/12 09:03:22;;;;;;;11.23;10.13;;;22.90;99.90;;;;;;5046221;28;20395;-73
2021/06/12 09:05:57;;;;;;;12.00;9.98;;;22.80;99.90;;;;;;5044747;28;20025;-72
2021/06/12 09:08:28;;;;;;;11.80;10.80;;;23.10;99.90;;;;;;5019257;28;20029;-73
2021/06/12 09:10:56;;;;;;;12.23;10.68;;;23.30;99.90;;;;;;5024956;28;20029;-73
2021/06/12 09:13:42;;;;;;;11.45;10.43;;;23.40;99.90;;;;;;5018417;28;20049;-73
2021/06/12 09:16:31;;;;;;;12.73;11.02;;;23.40;99.90;;;;;;5017044;28;20025;-73
2021/06/12 09:19:12;;;;;;;10.98;9.95;;;23.60;99.90;;;;;;5045702;28;20542;-73
2021/06/12 09:21:41;;;;;;;11.50;10.38;;;23.80;99.90;;;;;;5024525;28;20025;-73
2021/06/12 09:24:42;;;;;;;11.35;9.60;;;23.80;99.90;;;;;;5031641;28;20483;-73
2021/06/12 09:27:12;;;;;;;9.40;8.50;;;23.60;99.90;;;;;;5032884;28;20029;-73
2021/06/12 09:29:44;;;;;;;9.35;8.35;;;24.10;99.90;;;;;;5024513;28;20025;-73
2021/06/12 09:32:18;;;;;;;9.57;8.68;;;24.30;99.90;;;;;;5031377;28;20021;-73
2021/06/12 09:34:45;;;;;;;9.30;8.48;;;24.30;99.90;;;;;;5041695;28;20044;-73
2021/06/12 09:37:17;;;;;;;10.10;7.70;;;24.30;99.90;;;;;;5034174;28;20021;-74
2021/06/12 09:39:58;;;;;;;8.52;7.63;;;24.20;99.90;;;;;;5031395;28;20427;-74
2021/06/12 09:42:42;;;;;;;8.85;7.70;;;24.10;99.90;;;;;;5018332;28;20032;-73
2021/06/12 09:45:11;;;;;;;8.50;7.70;;;24.30;99.90;;;;;;5047349;28;20104;-73
2021/06/12 09:47:36;;;;;;;8.32;7.53;;;24.00;99.90;;;;;;5051202;28;20036;-74
2021/06/12 09:50:05;;;;;;;9.45;8.45;;;24.20;99.90;;;;;;5033200;28;20075;-74
2021/06/12 09:52:41;;;;;;;9.60;8.73;;;24.40;99.90;;;;;;5041416;28;20479;-74
2021/06/12 09:55:07;;;;;;;10.23;7.55;;;24.60;99.90;;;;;;5036851;28;20496;-73
2021/06/12 09:57:45;;;;;;;8.80;7.90;;;24.90;99.90;;;;;;5047746;28;20033;-74
2021/06/12 10:00:12;;;;;;;8.38;7.57;;;24.50;99.90;;;;;;5008432;28;20507;-74
2021/06/12 10:02:46;;;;;;;6.65;5.60;;;24.30;99.90;;;;;;5021813;28;20041;-73
2021/06/12 10:05:16;;;;;;;7.63;6.47;;;24.60;99.90;;;;;;5042933;28;20025;-74
2021/06/12 10:07:42;;;;;;;8.32;5.95;;;24.60;99.90;;;;;;5039542;28;20033;-73
2021/06/12 10:10:13;;;;;;;6.40;5.68;;;24.60;99.90;;;;;;5034723;28;20036;-74
2021/06/12 10:12:42;;;;;;;6.95;5.90;;;24.80;99.90;;;;;;5017119;28;20412;-73
2021/06/12 10:15:10;;;;;;;6.15;5.55;;;25.00;99.90;;;;;;5034717;28;20029;-74
2021/06/12 10:17:56;;;;;;;6.15;5.50;;;24.90;99.90;;;;;;5020055;28;20487;-73
2021/06/12 10:20:24;;;;;;;7.38;5.50;;;24.80;99.90;;;;;;5053909;28;20491;-73
2021/06/12 10:22:51;;;;;;;5.25;4.55;;;24.80;99.90;;;;;;5034864;28;20045;-73
2021/06/12 10:25:18;;;;;;;5.45;4.30;;;24.90;99.90;;;;;;5034503;28;20101;-73
2021/06/12 10:27:44;;;;;;;4.85;4.10;;;25.30;99.90;;;;;;5034419;28;20018;-73
2021/06/12 10:30:12;;;;;;;4.32;3.85;;;25.20;99.90;;;;;;5034254;28;20365;-74
2021/06/12 10:32:44;;;;;;;5.32;4.15;;;25.00;99.90;;;;;;5027709;28;20017;-73
2021/06/12 10:35:14;;;;;;;4.43;3.88;;;24.90;99.90;;;;;;5040282;28;20108;-74
2021/06/12 10:38:13;;;;;;;7.05;4.22;;;25.00;99.90;;;;;;5034310;28;20028;-73
2021/06/12 10:40:50;;;;;;;6.97;4.15;;;24.70;99.90;;;;;;5034155;28;20022;-73
2021/06/12 10:43:17;;;;;;;4.70;4.30;;;24.70;99.90;;;;;;5048324;28;20021;-73
2021/06/12 10:46:02;;;;;;;5.43;3.80;;;25.10;99.90;;;;;;5054077;28;20100;-73
2021/06/12 10:48:37;;;;;;;4.07;3.67;;;24.80;99.90;;;;;;5022695;28;20395;-73
2021/06/12 10:51:10;;;;;;;6.57;3.90;;;24.60;99.90;;;;;;5054000;28;20592;-73
2021/06/12 10:53:41;;;;;;;5.75;3.90;;;24.90;99.90;;;;;;5034915;28;20100;-74
2021/06/12 10:56:12;;;;;;;4.82;3.90;;;25.10;99.90;;;;;;5033975;28;20530;-74
2021/06/12 10:58:46;;;;;;;5.25;3.92;;;25.10;99.90;;;;;;5033974;28;20087;-73
2021/06/12 11:01:15;;;;;;;5.93;3.75;;;25.30;99.90;;;;;;5045793;28;20025;-73
2021/06/12 11:06:31;;;;;;;3.70;3.40;;;24.50;99.90;;;;;;5034135;28;20026;-73
2021/06/12 11:09:18;;;;;;;5.80;3.80;;;24.70;99.90;;;;;;5025333;28;20144;-73
2021/06/12 11:11:52;;;;;;;4.05;3.75;;;25.20;99.90;;;;;;5010843;28;20492;-74
2021/06/12 11:14:20;;;;;;;4.47;4.07;;;25.40;99.90;;;;;;5046924;28;20087;-73
2021/06/12 11:17:08;;;;;;;4.13;3.47;;;25.10;99.90;;;;;;5033670;28;20464;-73
2021/06/12 11:19:54;;;;;;;4.80;3.92;;;25.60;99.90;;;;;;5029102;28;20033;-73
2021/06/12 11:22:32;;;;;;;4.57;3.72;;;25.50;99.90;;;;;;4995223;28;20046;-74
2021/06/12 11:25:09;;;;;;;5.40;4.13;;;25.60;99.90;;;;;;5033505;28;20033;-74
2021/06/12 11:27:40;;;;;;;4.90;3.92;;;25.50;99.90;;;;;;5039118;28;20482;-73
2021/06/12 11:30:20;;;;;;;4.63;4.22;;;25.30;99.90;;;;;;5040123;28;20072;-73
2021/06/12 11:32:58;;;;;;;6.35;4.18;;;25.50;99.90;;;;;;5009143;28;20624;-73
2021/06/12 11:35:43;;;;;;;5.78;4.25;;;26.10;99.90;;;;;;5033265;28;20105;-73
2021/06/12 11:38:30;;;;;;;4.38;3.50;;;26.10;99.90;;;;;;5015532;28;20113;-73
2021/06/12 11:41:00;;;;;;;5.03;3.75;;;25.70;99.90;;;;;;5033100;28;20033;-73
2021/06/12 11:43:37;;;;;;;6.45;3.28;;;25.30;99.90;;;;;;5032974;28;20472;-73
2021/06/12 11:46:10;;;;;;;3.65;3.00;;;25.20;99.90;;;;;;5034293;28;20045;-73
2021/06/12 11:48:48;;;;;;;3.92;3.30;;;25.70;99.90;;;;;;5053284;28;20492;-73
2021/06/12 11:51:19;;;;;;;3.40;3.10;;;25.60;99.90;;;;;;5034908;28;20032;-73
2021/06/12 11:54:09;;;;;;;4.63;3.10;;;26.00;99.90;;;;;;5034940;28;20021;-73
2021/06/12 11:56:45;;;;;;;4.95;2.97;;;26.10;99.90;;;;;;5021620;28;20522;-74
2021/06/12 11:59:12;;;;;;;;;;;26.00;99.90;;;;;;5033085;28;20109;-73
2021/06/12 12:01:59;;;;;;;5.47;2.28;;;26.30;99.90;;;;;;5032780;28;20306;-74
2021/06/12 12:04:31;;;;;;;2.78;2.25;;;25.80;99.90;;;;;;5034212;28;20030;-74
2021/06/12 12:06:57;;;;;;;2.72;2.33;;;25.70;99.90;;;;;;5043571;28;20171;-74
2021/06/12 12:09:28;;;;;;;3.88;2.42;;;25.80;99.90;;;;;;5029706;28;20529;-74
2021/06/12 12:11:56;;;;;;;2.65;2.28;;;26.00;99.90;;;;;;5034693;28;20074;-74
2021/06/12 12:14:45;;;;;;;2.72;2.22;;;26.10;99.90;;;;;;5035313;28;20040;-74
2021/06/12 12:17:28;;;;;;;4.97;2.50;;;25.80;99.90;;;;;;5031894;28;20029;-74
2021/06/12 12:19:58;;;;;;;6.10;2.47;;;25.70;99.90;;;;;;5021431;28;20554;-74
2021/06/12 12:22:38;;;;;;;2.63;2.42;;;25.30;99.90;;;;;;5048466;28;20445;-74
2021/06/12 12:25:06;;;;;;;3.90;2.50;;;25.30;99.90;;;;;;5052189;28;20033;-74
2021/06/12 12:27:32;;;;;;;3.00;2.42;;;25.50;99.90;;;;;;5052149;28;20036;-74
2021/06/12 12:29:57;;;;;;;3.03;2.63;;;25.60;99.90;;;;;;5040182;28;20082;-74
2021/06/12 12:32:23;;;;;;;3.40;2.72;;;25.70;99.90;;;;;;5019230;28;20095;-74
2021/06/12 12:34:49;;;;;;;3.50;2.60;;;25.40;99.90;;;;;;5040650;28;20436;-74
2021/06/12 12:37:23;;;;;;;3.67;2.60;;;25.60;99.90;;;;;;5032022;28;20068;-74
2021/06/12 12:39:51;;;;;;;3.53;2.85;;;25.80;99.90;;;;;;5031879;28;20021;-74
2021/06/12 12:42:22;;;;;;;3.88;2.97;;;25.90;99.90;;;;;;5051061;28;20037;-74
2021/06/12 12:44:49;;;;;;;3.25;2.90;;;25.60;99.90;;;;;;5051746;28;20021;-73